Time;durP1;ratioP1;P1;durP2;ratioP2;P2;SDS_P1;SDS_P2;PMS_P1;PMS_P2;Temp;Humidity;BMP_temperature;BMP_pressure;BME280_temperature;BME280_humidity;BME280_pressure;Samples;Min_cycle;Max_cycle;Signal;HPM_P1;HPM_P2
2023/08/25 00:02:48;;;;;;;15.02;10.65;;;;;;;;;;10339146;28;20903;-95
2023/08/25 00:07:51;;;;;;;13.23;10.93;;;;;;;;;;10333628;28;20412;-94
2023/08/25 00:12:54;;;;;;;14.38;11.25;;;;;;;;;;10311387;28;20423;-95
2023/08/25 00:17:58;;;;;;;13.48;10.55;;;;;;;;;;10335232;28;20432;-94
2023/08/25 00:23:00;;;;;;;14.07;10.85;;;;;;;;;;10324170;28;20768;-94
2023/08/25 00:28:03;;;;;;;14.10;11.35;;;;;;;;;;10323063;28;20963;-94
2023/08/25 00:33:07;;;;;;;16.13;11.60;;;;;;;;;;10330511;28;20407;-95
2023/08/25 00:38:10;;;;;;;15.75;10.95;;;;;;;;;;10328990;28;20408;-94
2023/08/25 00:43:13;;;;;;;16.63;13.02;;;;;;;;;;10335585;28;20504;-95
2023/08/25 00:48:17;;;;;;;17.90;13.17;;;;;;;;;;10341942;28;20762;-95
2023/08/25 00:53:21;;;;;;;18.48;14.00;;;;;;;;;;10338755;28;20416;-94
2023/08/25 00:58:23;;;;;;;18.60;14.30;;;;;;;;;;10338999;28;20425;-94
2023/08/25 01:03:28;;;;;;;17.92;14.00;;;;;;;;;;10338665;28;20418;-94
2023/08/25 01:08:32;;;;;;;17.98;13.40;;;;;;;;;;10332339;28;20448;-94
2023/08/25 01:13:44;;;;;;;20.35;13.77;;;;;;;;;;10334583;28;20492;-95
2023/08/25 01:18:48;;;;;;;16.50;12.50;;;;;;;;;;10331332;28;20469;-94
2023/08/25 01:23:59;;;;;;;14.45;10.68;;;;;;;;;;10331166;28;20505;-94
2023/08/25 01:29:03;;;;;;;12.63;9.52;;;;;;;;;;10343670;28;20505;-95
2023/08/25 01:34:06;;;;;;;11.83;8.20;;;;;;;;;;10343158;28;20432;-94
2023/08/25 01:39:14;;;;;;;13.00;7.60;;;;;;;;;;10319899;28;20411;-94
2023/08/25 01:44:20;;;;;;;9.90;7.47;;;;;;;;;;10327425;28;20420;-95
2023/08/25 01:49:23;;;;;;;9.00;6.87;;;;;;;;;;10331111;28;20415;-96
2023/08/25 01:54:26;;;;;;;11.50;7.78;;;;;;;;;;10336459;28;20404;-94
2023/08/25 01:59:30;;;;;;;12.47;7.70;;;;;;;;;;10323712;28;20421;-95
2023/08/25 02:04:33;;;;;;;13.83;7.17;;;;;;;;;;10338503;28;20789;-95
2023/08/25 02:09:35;;;;;;;12.50;7.05;;;;;;;;;;10329112;28;20427;-95
2023/08/25 02:14:39;;;;;;;13.65;8.07;;;;;;;;;;10335742;28;20471;-94
2023/08/25 02:19:42;;;;;;;12.60;7.20;;;;;;;;;;10334418;28;20410;-94
2023/08/25 02:24:45;;;;;;;12.05;7.95;;;;;;;;;;10335371;28;20429;-95
2023/08/25 02:29:49;;;;;;;11.80;7.53;;;;;;;;;;10341696;28;20893;-94
2023/08/25 02:34:51;;;;;;;10.35;8.00;;;;;;;;;;10337981;28;20405;-94
2023/08/25 02:39:54;;;;;;;10.70;7.75;;;;;;;;;;10331402;28;20418;-94
2023/08/25 02:44:58;;;;;;;13.33;8.40;;;;;;;;;;10331910;28;20979;-94
2023/08/25 02:50:02;;;;;;;12.85;8.13;;;;;;;;;;10337900;28;20444;-94
2023/08/25 02:55:06;;;;;;;10.25;8.18;;;;;;;;;;10341878;28;20469;-95
2023/08/25 03:00:13;;;;;;;11.95;8.50;;;;;;;;;;10332995;28;20462;-94
2023/08/25 03:05:18;;;;;;;12.80;8.87;;;;;;;;;;10336660;28;20451;-94
2023/08/25 03:10:26;;;;;;;12.45;8.65;;;;;;;;;;10337564;28;20424;-95
2023/08/25 03:15:30;;;;;;;14.95;8.50;;;;;;;;;;10351213;28;20556;-95
2023/08/25 03:20:33;;;;;;;12.05;8.48;;;;;;;;;;10342191;28;20439;-94
2023/08/25 03:25:38;;;;;;;11.65;8.48;;;;;;;;;;10338622;28;20458;-95
2023/08/25 03:30:43;;;;;;;13.77;9.10;;;;;;;;;;10343849;28;20419;-94
2023/08/25 03:35:45;;;;;;;11.80;7.85;;;;;;;;;;10343635;28;20417;-95
2023/08/25 03:40:48;;;;;;;11.75;8.45;;;;;;;;;;10337608;28;20458;-94
2023/08/25 03:45:52;;;;;;;13.32;8.93;;;;;;;;;;10357963;28;20472;-94
2023/08/25 03:50:55;;;;;;;10.35;7.80;;;;;;;;;;10334862;28;20453;-94
2023/08/25 03:55:58;;;;;;;10.82;7.60;;;;;;;;;;10335139;28;20422;-94
2023/08/25 04:01:03;;;;;;;11.33;7.03;;;;;;;;;;10336915;28;20787;-94
2023/08/25 04:06:06;;;;;;;11.27;7.32;;;;;;;;;;10345506;28;20448;-93
2023/08/25 04:11:09;;;;;;;11.48;7.28;;;;;;;;;;10344334;28;20422;-93
2023/08/25 04:16:13;;;;;;;11.25;6.95;;;;;;;;;;10342904;28;20846;-93
2023/08/25 04:21:16;;;;;;;10.77;7.25;;;;;;;;;;10332640;28;20413;-94
2023/08/25 04:26:18;;;;;;;13.35;7.50;;;;;;;;;;10349861;28;20457;-95
2023/08/25 04:31:23;;;;;;;13.35;7.50;;;;;;;;;;10342607;28;20456;-95
2023/08/25 04:36:26;;;;;;;11.63;7.43;;;;;;;;;;10342574;28;20446;-94
2023/08/25 04:41:29;;;;;;;10.80;7.50;;;;;;;;;;10338669;28;20426;-94
2023/08/25 04:46:34;;;;;;;10.63;7.35;;;;;;;;;;10342176;28;20481;-95
2023/08/25 04:51:37;;;;;;;9.13;7.10;;;;;;;;;;10320059;28;20422;-94
2023/08/25 04:56:39;;;;;;;11.23;7.57;;;;;;;;;;10316033;28;20414;-95
2023/08/25 05:01:44;;;;;;;10.27;7.35;;;;;;;;;;10406951;28;20443;-95
2023/08/25 05:06:47;;;;;;;13.52;7.30;;;;;;;;;;10425769;28;20448;-94
2023/08/25 05:11:50;;;;;;;11.93;7.07;;;;;;;;;;10422080;28;20807;-94
2023/08/25 05:16:54;;;;;;;13.93;8.00;;;;;;;;;;10414476;28;20460;-94
2023/08/25 05:21:57;;;;;;;10.80;7.40;;;;;;;;;;10406333;28;20403;-93
2023/08/25 05:32:17;;;;;;;13.90;7.23;;;;;;;;;;10404816;28;20401;-93
2023/08/25 05:37:19;;;;;;;9.48;7.13;;;;;;;;;;10396819;28;20443;-94
2023/08/25 05:42:22;;;;;;;12.18;6.78;;;;;;;;;;10396187;28;20419;-95
2023/08/25 05:47:27;;;;;;;12.90;7.18;;;;;;;;;;10406590;28;20422;-95
2023/08/25 05:52:29;;;;;;;13.80;7.15;;;;;;;;;;10395185;28;20474;-94
2023/08/25 05:57:31;;;;;;;10.38;7.03;;;;;;;;;;10414837;28;20421;-94
2023/08/25 06:02:35;;;;;;;11.73;6.70;;;;;;;;;;10408524;28;20419;-93
2023/08/25 06:07:38;;;;;;;10.33;7.17;;;;;;;;;;10452412;28;20404;-93
2023/08/25 06:12:40;;;;;;;9.93;6.90;;;;;;;;;;10441625;28;20975;-93
2023/08/25 06:17:44;;;;;;;9.80;6.93;;;;;;;;;;10416376;28;20454;-93
2023/08/25 06:22:46;;;;;;;12.13;7.00;;;;;;;;;;10403028;28;20406;-92
2023/08/25 06:27:49;;;;;;;15.83;6.50;;;;;;;;;;10400450;28;20977;-93
2023/08/25 06:32:53;;;;;;;10.30;6.60;;;;;;;;;;10406310;28;20414;-93
2023/08/25 06:37:55;;;;;;;13.35;6.80;;;;;;;;;;10389102;28;20407;-93
2023/08/25 06:42:57;;;;;;;9.60;6.32;;;;;;;;;;10415902;28;20409;-94
2023/08/25 06:48:01;;;;;;;9.23;5.78;;;;;;;;;;10412804;28;20479;-94
2023/08/25 06:53:06;;;;;;;9.00;6.13;;;;;;;;;;10407984;28;20475;-94
2023/08/25 06:58:09;;;;;;;11.25;6.07;;;;;;;;;;10421089;28;20951;-94
2023/08/25 07:03:13;;;;;;;9.00;6.50;;;;;;;;;;10405634;28;20473;-94
2023/08/25 07:08:15;;;;;;;11.32;6.15;;;;;;;;;;10389939;28;20457;-93
2023/08/25 07:13:18;;;;;;;11.57;6.22;;;;;;;;;;10402655;28;20406;-94
2023/08/25 07:18:24;;;;;;;9.53;5.93;;;;;;;;;;10410141;28;20907;-93
2023/08/25 07:23:26;;;;;;;10.23;6.55;;;;;;;;;;10393271;28;20473;-94
2023/08/25 07:28:29;;;;;;;9.68;6.65;;;;;;;;;;10396167;28;20495;-95
2023/08/25 07:33:33;;;;;;;11.35;6.70;;;;;;;;;;10396412;28;20494;-91
2023/08/25 07:38:36;;;;;;;10.13;6.27;;;;;;;;;;10395784;28;20485;-89
2023/08/25 07:43:38;;;;;;;10.52;6.43;;;;;;;;;;10397288;28;20535;-92
2023/08/25 07:48:42;;;;;;;9.00;6.15;;;;;;;;;;10403728;28;20425;-92
2023/08/25 07:53:44;;;;;;;12.40;7.03;;;;;;;;;;10402097;28;20421;-92
2023/08/25 07:58:47;;;;;;;10.35;6.60;;;;;;;;;;10406581;28;20979;-92
2023/08/25 08:03:50;;;;;;;8.48;6.40;;;;;;;;;;10411613;28;20414;-91
2023/08/25 08:08:53;;;;;;;8.67;6.20;;;;;;;;;;10403378;28;20527;-90
2023/08/25 08:13:55;;;;;;;11.88;6.38;;;;;;;;;;10403267;28;21024;-91
2023/08/25 08:18:59;;;;;;;9.20;6.50;;;;;;;;;;10412221;28;20413;-91
2023/08/25 08:24:02;;;;;;;12.13;6.90;;;;;;;;;;10399792;28;20410;-93
2023/08/25 08:29:04;;;;;;;12.55;7.00;;;;;;;;;;10406030;28;20531;-92
2023/08/25 08:34:08;;;;;;;11.18;6.90;;;;;;;;;;10399566;28;20460;-94
2023/08/25 08:39:12;;;;;;;11.45;7.10;;;;;;;;;;10402379;28;20415;-94
2023/08/25 08:44:16;;;;;;;10.30;7.23;;;;;;;;;;10414936;28;20468;-94
2023/08/25 08:49:23;;;;;;;12.00;7.25;;;;;;;;;;10408708;28;20417;-93
2023/08/25 08:54:27;;;;;;;11.18;6.75;;;;;;;;;;10431913;28;20411;-93
2023/08/25 08:59:31;;;;;;;13.57;7.30;;;;;;;;;;10413120;28;20499;-93
2023/08/25 09:04:37;;;;;;;12.38;7.03;;;;;;;;;;10396815;28;20425;-91
2023/08/25 09:09:41;;;;;;;9.13;6.80;;;;;;;;;;10392321;28;20921;-93
2023/08/25 09:14:44;;;;;;;9.13;7.18;;;;;;;;;;10407731;28;20479;-93
2023/08/25 09:19:50;;;;;;;9.77;6.70;;;;;;;;;;10395256;28;20417;-92
2023/08/25 09:24:59;;;;;;;9.90;7.33;;;;;;;;;;10390059;28;20430;-93
2023/08/25 09:30:04;;;;;;;10.57;6.70;;;;;;;;;;10399744;28;20464;-93
2023/08/25 09:35:21;;;;;;;10.30;7.22;;;;;;;;;;10396204;28;20409;-91
2023/08/25 09:40:24;;;;;;;10.50;7.18;;;;;;;;;;10393673;28;20399;-93
2023/08/25 09:45:31;;;;;;;10.25;7.13;;;;;;;;;;10395265;28;20419;-91
2023/08/25 09:50:38;;;;;;;9.98;6.90;;;;;;;;;;10392151;28;20905;-92
2023/08/25 09:55:41;;;;;;;10.02;7.63;;;;;;;;;;10386892;28;20421;-94
2023/08/25 10:00:43;;;;;;;11.83;7.43;;;;;;;;;;10392683;28;20927;-93
2023/08/25 10:05:48;;;;;;;10.20;7.20;;;;;;;;;;10397850;28;20485;-94
2023/08/25 10:10:52;;;;;;;10.35;7.60;;;;;;;;;;10402153;28;20409;-95
2023/08/25 10:15:56;;;;;;;9.23;7.30;;;;;;;;;;10408676;28;20469;-93
2023/08/25 10:21:01;;;;;;;9.85;7.30;;;;;;;;;;10400897;28;20413;-94
2023/08/25 10:26:04;;;;;;;9.47;7.47;;;;;;;;;;10407116;28;20460;-95
2023/08/25 10:31:07;;;;;;;9.63;7.40;;;;;;;;;;10426044;28;20472;-93
2023/08/25 10:36:16;;;;;;;11.90;7.50;;;;;;;;;;10405892;28;20411;-94
2023/08/25 10:41:20;;;;;;;10.07;7.17;;;;;;;;;;10412164;28;20476;-94
2023/08/25 10:46:26;;;;;;;9.95;7.07;;;;;;;;;;10404436;28;20431;-93
2023/08/25 10:51:33;;;;;;;11.70;7.18;;;;;;;;;;10404058;28;20858;-94
2023/08/25 10:56:36;;;;;;;9.68;7.13;;;;;;;;;;10407184;28;20410;-94
2023/08/25 11:02:08;;;;;;;9.95;7.05;;;;;;;;;;10411177;28;20463;-93
2023/08/25 11:07:43;;;;;;;10.40;7.40;;;;;;;;;;10281090;28;20426;-94
2023/08/25 11:12:50;;;;;;;8.10;6.80;;;;;;;;;;10409255;28;20413;-94
2023/08/25 11:17:54;;;;;;;9.03;7.00;;;;;;;;;;10399574;28;20405;-92
2023/08/25 11:22:59;;;;;;;7.67;6.70;;;;;;;;;;10398839;28;20412;-93
2023/08/25 11:28:04;;;;;;;10.70;6.23;;;;;;;;;;10410598;28;20527;-92
2023/08/25 11:33:06;;;;;;;8.15;6.63;;;;;;;;;;10400175;28;20413;-94
2023/08/25 11:38:13;;;;;;;9.83;6.90;;;;;;;;;;10413230;28;20417;-93
2023/08/25 11:43:15;;;;;;;8.00;6.53;;;;;;;;;;10402624;28;20413;-93
2023/08/25 11:48:19;;;;;;;7.03;5.88;;;;;;;;;;10397017;28;20958;-93
2023/08/25 11:53:23;;;;;;;7.65;5.60;;;;;;;;;;10404819;28;20429;-93
2023/08/25 11:58:31;;;;;;;6.93;5.70;;;;;;;;;;10396010;28;20475;-92
2023/08/25 12:03:34;;;;;;;5.65;4.88;;;;;;;;;;10409852;28;20439;-93
2023/08/25 12:08:44;;;;;;;7.10;5.80;;;;;;;;;;10410915;28;20460;-93
2023/08/25 12:13:51;;;;;;;6.47;5.57;;;;;;;;;;10416717;28;20479;-94
2023/08/25 12:18:54;;;;;;;6.22;5.43;;;;;;;;;;10414583;28;20410;-94
2023/08/25 12:23:59;;;;;;;6.30;5.15;;;;;;;;;;10400325;28;20403;-93
2023/08/25 12:29:03;;;;;;;6.93;5.15;;;;;;;;;;10409835;28;20511;-92
2023/08/25 12:34:07;;;;;;;6.38;5.20;;;;;;;;;;10407689;28;20405;-94
2023/08/25 12:39:12;;;;;;;7.25;5.30;;;;;;;;;;10399065;28;20407;-93
2023/08/25 12:44:15;;;;;;;6.33;5.23;;;;;;;;;;10407120;28;20417;-93
2023/08/25 12:49:19;;;;;;;6.93;5.20;;;;;;;;;;10415212;28;20940;-94
2023/08/25 12:54:25;;;;;;;8.27;5.68;;;;;;;;;;10405643;28;20867;-91
2023/08/25 12:59:29;;;;;;;7.05;5.38;;;;;;;;;;10447173;22;20915;-93
2023/08/25 13:04:31;;;;;;;6.60;5.70;;;;;;;;;;10455462;28;20469;-92
2023/08/25 13:09:35;;;;;;;8.07;5.38;;;;;;;;;;10453762;28;20481;-93
2023/08/25 13:14:40;;;;;;;7.03;5.93;;;;;;;;;;10450378;28;20416;-93
2023/08/25 13:19:42;;;;;;;6.72;5.65;;;;;;;;;;10452332;28;20416;-94
2023/08/25 13:24:49;;;;;;;7.83;5.80;;;;;;;;;;10447051;28;20470;-94
2023/08/25 13:29:52;;;;;;;6.95;6.25;;;;;;;;;;10446008;28;20450;-92
2023/08/25 13:34:54;;;;;;;6.63;5.50;;;;;;;;;;10447569;28;20417;-92
2023/08/25 13:40:27;;;;;;;7.07;5.70;;;;;;;;;;10449410;28;20768;-92
2023/08/25 13:45:30;;;;;;;9.88;6.55;;;;;;;;;;10448485;28;20896;-93
2023/08/25 13:50:32;;;;;;;10.98;5.80;;;;;;;;;;10447147;28;20450;-92
2023/08/25 13:55:37;;;;;;;5.70;5.00;;;;;;;;;;10448495;28;20438;-94
2023/08/25 14:00:39;;;;;;;6.40;5.00;;;;;;;;;;10431199;28;20959;-92
2023/08/25 14:05:42;;;;;;;5.10;4.53;;;;;;;;;;10440062;28;21038;-93
2023/08/25 14:10:46;;;;;;;5.93;4.93;;;;;;;;;;10448195;28;20473;-94
2023/08/25 14:15:48;;;;;;;5.15;4.70;;;;;;;;;;10442950;28;20816;-95
2023/08/25 14:20:50;;;;;;;6.28;5.18;;;;;;;;;;10450883;28;20442;-93
2023/08/25 14:25:54;;;;;;;5.50;5.00;;;;;;;;;;10441930;28;20452;-93
2023/08/25 14:30:56;;;;;;;5.35;4.85;;;;;;;;;;10441101;28;20497;-93
2023/08/25 14:35:59;;;;;;;6.95;4.95;;;;;;;;;;10437406;28;20471;-93
2023/08/25 14:41:04;;;;;;;6.70;4.80;;;;;;;;;;10439481;28;20412;-92
2023/08/25 14:46:09;;;;;;;5.50;4.93;;;;;;;;;;10433289;28;21199;-92
2023/08/25 14:51:11;;;;;;;5.10;4.63;;;;;;;;;;10441367;28;20428;-93
2023/08/25 14:56:15;;;;;;;5.60;5.00;;;;;;;;;;10440724;28;20978;-93
2023/08/25 15:01:18;;;;;;;5.27;4.77;;;;;;;;;;10439236;28;20474;-93
2023/08/25 15:06:20;;;;;;;5.60;5.00;;;;;;;;;;10441702;28;20481;-92
2023/08/25 15:11:24;;;;;;;5.57;4.63;;;;;;;;;;10437796;28;20502;-94
2023/08/25 15:16:26;;;;;;;5.50;4.97;;;;;;;;;;10437792;28;20427;-93
2023/08/25 15:21:30;;;;;;;6.10;4.82;;;;;;;;;;10449869;28;20504;-93
2023/08/25 15:26:34;;;;;;;5.20;4.57;;;;;;;;;;10435233;28;20436;-93
2023/08/25 15:31:36;;;;;;;4.90;4.50;;;;;;;;;;10444379;28;20447;-93
2023/08/25 15:36:38;;;;;;;5.32;4.82;;;;;;;;;;10446597;28;20415;-93
2023/08/25 15:41:42;;;;;;;6.05;5.18;;;;;;;;;;10445274;28;20446;-92
2023/08/25 15:46:45;;;;;;;5.80;5.17;;;;;;;;;;10444507;28;20444;-93
2023/08/25 15:51:47;;;;;;;6.43;4.90;;;;;;;;;;10431297;28;20427;-93
2023/08/25 15:56:51;;;;;;;6.65;5.28;;;;;;;;;;10436530;28;20424;-95
2023/08/25 16:01:53;;;;;;;6.07;5.22;;;;;;;;;;10440038;28;20439;-94
2023/08/25 16:06:55;;;;;;;6.15;5.13;;;;;;;;;;10450232;28;20424;-93
2023/08/25 16:11:59;;;;;;;6.70;5.80;;;;;;;;;;10446237;28;20454;-93
2023/08/25 16:17:01;;;;;;;5.65;5.15;;;;;;;;;;10444135;28;20421;-92
2023/08/25 16:22:04;;;;;;;7.30;6.30;;;;;;;;;;10442098;28;20421;-94
2023/08/25 16:27:13;;;;;;;7.57;5.90;;;;;;;;;;10440672;28;20423;-93
2023/08/25 16:32:15;;;;;;;7.83;6.37;;;;;;;;;;10439434;28;20448;-93
2023/08/25 16:37:18;;;;;;;7.72;6.30;;;;;;;;;;10441428;28;20423;-93
2023/08/25 16:42:21;;;;;;;6.72;6.13;;;;;;;;;;10445167;28;20818;-93
2023/08/25 16:47:24;;;;;;;7.20;6.43;;;;;;;;;;10446996;28;20420;-94
2023/08/25 16:52:26;;;;;;;7.68;6.13;;;;;;;;;;10453615;28;20469;-96
2023/08/25 16:57:30;;;;;;;6.85;6.15;;;;;;;;;;10450604;28;20489;-96
2023/08/25 17:02:33;;;;;;;7.72;6.25;;;;;;;;;;10449473;28;20779;-96
2023/08/25 17:25:35;;;;;;;7.40;6.80;;;;;;;;;;10425476;28;20959;-96
2023/08/25 17:30:37;;;;;;;8.10;7.30;;;;;;;;;;10450790;28;20480;-96
2023/08/25 17:35:40;;;;;;;8.25;7.18;;;;;;;;;;10452693;28;20907;-96
2023/08/25 17:40:44;;;;;;;9.10;7.80;;;;;;;;;;10450896;28;20481;-96
2023/08/25 17:45:46;;;;;;;7.85;7.05;;;;;;;;;;10441564;28;20824;-96
2023/08/25 17:50:48;;;;;;;8.18;7.40;;;;;;;;;;10460734;28;20493;-96
2023/08/25 17:55:55;;;;;;;9.05;7.72;;;;;;;;;;10451916;28;20421;-96
2023/08/25 18:00:58;;;;;;;10.63;8.10;;;;;;;;;;10444393;28;20518;-82
2023/08/25 18:06:03;;;;;;;10.88;8.27;;;;;;;;;;10447067;28;20420;-95
2023/08/25 18:11:07;;;;;;;9.07;8.17;;;;;;;;;;10428976;28;20493;-95
2023/08/25 18:16:09;;;;;;;9.00;8.10;;;;;;;;;;10436674;28;20415;-95
2023/08/25 18:21:12;;;;;;;9.60;8.15;;;;;;;;;;10443565;28;20409;-95
2023/08/25 18:26:16;;;;;;;9.20;8.07;;;;;;;;;;10447856;28;20895;-94
2023/08/25 18:31:18;;;;;;;10.43;8.75;;;;;;;;;;10448010;28;20485;-96
2023/08/25 18:36:20;;;;;;;10.10;8.33;;;;;;;;;;10450126;28;20457;-95
2023/08/25 18:41:24;;;;;;;9.45;8.02;;;;;;;;;;10434435;28;20445;-96
2023/08/25 18:46:28;;;;;;;9.30;8.40;;;;;;;;;;10448102;28;20497;-95
2023/08/25 18:51:30;;;;;;;10.57;8.30;;;;;;;;;;10441587;28;20412;-96
2023/08/25 18:56:34;;;;;;;9.63;8.63;;;;;;;;;;10448349;28;20404;-96
2023/08/25 19:01:36;;;;;;;9.80;8.68;;;;;;;;;;10432785;28;20443;-96
2023/08/25 19:06:39;;;;;;;10.80;8.80;;;;;;;;;;10446301;28;20441;-95
2023/08/25 19:11:43;;;;;;;11.38;8.93;;;;;;;;;;10435481;28;20424;-95
2023/08/25 19:16:45;;;;;;;12.43;9.30;;;;;;;;;;10444233;28;20443;-95
2023/08/25 19:21:48;;;;;;;12.32;8.60;;;;;;;;;;10440830;28;20416;-95
2023/08/25 19:26:52;;;;;;;10.48;9.05;;;;;;;;;;10414358;28;20718;-95
2023/08/25 19:31:59;;;;;;;10.13;8.53;;;;;;;;;;10393637;28;20425;-96
2023/08/25 19:37:02;;;;;;;11.10;9.15;;;;;;;;;;10400356;28;20503;-96
2023/08/25 19:42:07;;;;;;;14.80;9.73;;;;;;;;;;10403895;28;20973;-96
2023/08/25 19:47:11;;;;;;;12.10;10.00;;;;;;;;;;10418982;28;20979;-96
2023/08/25 19:52:13;;;;;;;13.23;9.93;;;;;;;;;;10408510;28;20472;-96
2023/08/25 19:57:18;;;;;;;11.10;9.90;;;;;;;;;;10424985;28;20406;-96
2023/08/25 20:02:21;;;;;;;11.37;9.50;;;;;;;;;;10414737;28;20456;-96
2023/08/25 20:07:25;;;;;;;12.15;10.10;;;;;;;;;;10421215;28;20409;-96
2023/08/25 20:12:29;;;;;;;10.95;9.73;;;;;;;;;;10415038;28;20414;-96
2023/08/25 20:17:31;;;;;;;12.55;10.50;;;;;;;;;;10408446;28;20421;-96
2023/08/25 20:22:34;;;;;;;11.43;10.23;;;;;;;;;;10414751;28;20404;-96
2023/08/25 20:27:40;;;;;;;11.18;9.75;;;;;;;;;;10454842;28;20826;-96
2023/08/25 20:32:43;;;;;;;12.63;9.98;;;;;;;;;;10438578;28;21222;-96
2023/08/25 20:37:45;;;;;;;11.73;10.30;;;;;;;;;;10453140;28;20462;-96
2023/08/25 20:42:50;;;;;;;12.60;10.45;;;;;;;;;;10446265;28;20826;-96
2023/08/25 20:47:52;;;;;;;15.85;10.90;;;;;;;;;;10450749;28;20416;-96
2023/08/25 20:52:55;;;;;;;13.25;10.80;;;;;;;;;;10452431;28;20454;-96
2023/08/25 20:57:59;;;;;;;11.73;10.35;;;;;;;;;;10450780;28;20466;-96
2023/08/25 21:03:03;;;;;;;13.30;10.97;;;;;;;;;;10450847;28;20526;-96
2023/08/25 21:08:06;;;;;;;16.33;12.07;;;;;;;;;;10451751;28;20481;-96
2023/08/25 21:13:10;;;;;;;13.68;11.32;;;;;;;;;;10446443;28;20420;-96
2023/08/25 21:18:13;;;;;;;14.67;11.60;;;;;;;;;;10466421;28;20418;-96
2023/08/25 21:23:16;;;;;;;15.25;11.52;;;;;;;;;;10464043;28;20880;-96
2023/08/25 21:28:21;;;;;;;14.75;11.88;;;;;;;;;;10451985;28;20469;-96
2023/08/25 21:33:25;;;;;;;13.85;12.23;;;;;;;;;;10449400;28;20437;-96
2023/08/25 21:38:28;;;;;;;15.75;11.48;;;;;;;;;;10452870;28;20449;-96
2023/08/25 21:43:32;;;;;;;25.48;19.83;;;;;;;;;;10458210;28;20507;-96
2023/08/25 21:48:34;;;;;;;20.55;16.35;;;;;;;;;;10456550;28;20421;-96
2023/08/25 21:53:36;;;;;;;16.60;13.70;;;;;;;;;;10454147;28;20442;-95
2023/08/25 21:58:40;;;;;;;16.13;12.40;;;;;;;;;;10451838;28;20403;-96
2023/08/25 22:03:43;;;;;;;14.65;12.27;;;;;;;;;;10478280;28;20449;-96
2023/08/25 22:08:46;;;;;;;14.00;12.60;;;;;;;;;;10450596;28;20892;-96
2023/08/25 22:13:50;;;;;;;14.85;13.27;;;;;;;;;;10442343;28;20424;-96
2023/08/25 22:18:52;;;;;;;17.30;13.27;;;;;;;;;;10472112;28;20406;-95
2023/08/25 22:23:54;;;;;;;17.43;12.53;;;;;;;;;;10463148;28;20475;-94
2023/08/25 22:28:58;;;;;;;16.38;12.95;;;;;;;;;;10448268;28;20789;-95
2023/08/25 22:34:00;;;;;;;15.03;12.90;;;;;;;;;;10443185;28;20834;-96
2023/08/25 22:39:04;;;;;;;14.93;12.70;;;;;;;;;;10423619;28;20411;-96
2023/08/25 22:44:08;;;;;;;14.52;12.45;;;;;;;;;;10438685;28;20407;-95
2023/08/25 22:49:13;;;;;;;16.38;13.15;;;;;;;;;;10414614;28;20428;-94
2023/08/25 22:54:15;;;;;;;14.63;12.93;;;;;;;;;;10412304;28;20405;-96
2023/08/25 22:59:19;;;;;;;14.93;13.35;;;;;;;;;;10415148;28;20409;-95
2023/08/25 23:04:21;;;;;;;16.90;13.57;;;;;;;;;;10455597;28;20407;-96
2023/08/25 23:09:24;;;;;;;15.10;13.05;;;;;;;;;;10439373;28;20476;-96
2023/08/25 23:14:27;;;;;;;17.63;13.55;;;;;;;;;;10448707;28;20411;-96
2023/08/25 23:19:30;;;;;;;15.83;13.50;;;;;;;;;;10458765;28;20887;-96
2023/08/25 23:24:43;;;;;;;17.90;13.63;;;;;;;;;;10454417;28;20415;-96
2023/08/25 23:29:47;;;;;;;14.67;12.27;;;;;;;;;;10440164;28;20413;-95
2023/08/25 23:34:50;;;;;;;13.70;12.20;;;;;;;;;;10431240;28;20442;-95
2023/08/25 23:39:52;;;;;;;15.90;12.75;;;;;;;;;;10437080;28;20459;-96
2023/08/25 23:44:56;;;;;;;15.98;12.98;;;;;;;;;;10427784;28;20878;-96
2023/08/25 23:50:02;;;;;;;14.77;12.57;;;;;;;;;;10454747;28;20485;-96
2023/08/25 23:55:08;;;;;;;14.60;11.30;;;;;;;;;;10450732;28;20409;-95
